createdAt,value
2019-02-12T00:00:51.882Z,1035.69
2019-02-12T00:01:51.867Z,1035.74
2019-02-12T00:02:51.855Z,1035.71
2019-02-12T00:03:51.835Z,1035.69
2019-02-12T00:04:51.822Z,1035.66
2019-02-12T00:05:51.808Z,1035.71
2019-02-12T00:06:51.792Z,1035.63
2019-02-12T00:07:51.778Z,1035.7
2019-02-12T00:08:51.762Z,1035.67
2019-02-12T00:09:51.748Z,1035.67
2019-02-12T00:10:51.731Z,1035.6
2019-02-12T00:11:51.717Z,1035.69
2019-02-12T00:12:51.703Z,1035.66
2019-02-12T00:13:51.690Z,1035.62
2019-02-12T00:14:51.677Z,1035.63
2019-02-12T00:15:51.657Z,1035.68
2019-02-12T00:16:51.644Z,1035.62
2019-02-12T00:17:51.628Z,1035.58
2019-02-12T00:18:51.614Z,1035.65
2019-02-12T00:19:51.599Z,1035.59
2019-02-12T00:20:51.583Z,1035.62
2019-02-12T00:21:51.568Z,1035.55
2019-02-12T00:22:51.557Z,1035.65
2019-02-12T00:23:51.589Z,1035.59
2019-02-12T00:24:51.530Z,1035.59
2019-02-12T00:25:51.510Z,1035.61
2019-02-12T00:26:51.499Z,1035.62
2019-02-12T00:27:51.480Z,1035.61
2019-02-12T00:28:51.466Z,1035.6
2019-02-12T00:29:51.451Z,1035.62
2019-02-12T00:30:51.438Z,1035.49
2019-02-12T00:31:51.423Z,1035.51
2019-02-12T00:32:51.413Z,1035.48
2019-02-12T00:33:51.393Z,1035.52
2019-02-12T00:34:51.378Z,1035.54
2019-02-12T00:35:51.365Z,1035.46
2019-02-12T00:36:51.349Z,1035.53
2019-02-12T00:37:51.334Z,1035.54
2019-02-12T00:38:51.320Z,1035.51
2019-02-12T00:39:51.304Z,1035.48
2019-02-12T00:40:51.291Z,1035.47
2019-02-12T00:41:51.275Z,1035.49
2019-02-12T00:42:51.262Z,1035.52
2019-02-12T00:43:51.246Z,1035.47
2019-02-12T00:44:51.233Z,1035.51
2019-02-12T00:45:51.218Z,1035.62
2019-02-12T00:46:51.204Z,1035.57
2019-02-12T00:47:51.187Z,1035.46
2019-02-12T00:48:51.172Z,1035.58
2019-02-12T00:49:51.160Z,1035.61
2019-02-12T00:50:51.145Z,1035.63
2019-02-12T00:51:51.130Z,1035.66
2019-02-12T00:52:51.116Z,1035.63
2019-02-12T00:53:51.101Z,1035.53
2019-02-12T00:54:51.098Z,1035.52
2019-02-12T00:55:51.072Z,1035.56
2019-02-12T00:56:51.055Z,1035.54
2019-02-12T00:57:51.040Z,1035.58
2019-02-12T00:58:51.025Z,1035.61
2019-02-12T00:59:51.011Z,1035.55
2019-02-12T01:00:50.995Z,1035.6
2019-02-12T01:01:50.981Z,1035.52
2019-02-12T01:02:50.966Z,1035.54
2019-02-12T01:03:50.952Z,1035.61
2019-02-12T01:04:50.937Z,1035.57
2019-02-12T01:05:50.922Z,1035.69
2019-02-12T01:06:50.907Z,1035.67
2019-02-12T01:07:50.893Z,1035.59
2019-02-12T01:08:50.878Z,1035.77
2019-02-12T01:09:50.863Z,1035.74
2019-02-12T01:10:50.849Z,1035.73
2019-02-12T01:11:50.834Z,1035.67
2019-02-12T01:12:50.819Z,1035.8
2019-02-12T01:13:50.804Z,1035.77
2019-02-12T01:14:50.789Z,1035.76
2019-02-12T01:15:50.775Z,1035.75
2019-02-12T01:16:50.760Z,1035.84
2019-02-12T01:17:50.747Z,1035.87
2019-02-12T01:18:50.731Z,1035.82
2019-02-12T01:19:50.716Z,1035.82
2019-02-12T01:20:50.700Z,1035.91
2019-02-12T01:21:50.687Z,1036
2019-02-12T01:22:50.672Z,1035.94
2019-02-12T01:23:50.656Z,1036.07
2019-02-12T01:24:50.642Z,1036.07
2019-02-12T01:25:50.627Z,1036.16
2019-02-12T01:26:50.612Z,1036.19
2019-02-12T01:27:50.600Z,1036.22
2019-02-12T01:28:50.583Z,1036.28
2019-02-12T01:29:50.568Z,1036.26
2019-02-12T01:30:50.554Z,1036.4
2019-02-12T01:31:50.540Z,1036.47
2019-02-12T01:32:50.527Z,1036.39
2019-02-12T01:33:50.510Z,1036.48
2019-02-12T01:34:50.495Z,1036.34
2019-02-12T01:35:50.479Z,1036.45
2019-02-12T01:36:50.465Z,1036.49
2019-02-12T01:37:50.450Z,1036.51
2019-02-12T01:38:50.434Z,1036.53
2019-02-12T01:39:50.418Z,1036.53
2019-02-12T01:40:50.411Z,1036.56
2019-02-12T01:41:50.389Z,1036.5
2019-02-12T01:42:50.374Z,1036.53
2019-02-12T01:43:50.359Z,1036.49
2019-02-12T01:44:50.344Z,1036.44
2019-02-12T01:45:50.329Z,1036.46
2019-02-12T01:46:50.314Z,1036.43
2019-02-12T01:47:50.301Z,1036.38
2019-02-12T01:48:50.285Z,1036.4
2019-02-12T01:49:50.269Z,1036.44
2019-02-12T01:50:50.252Z,1036.41
2019-02-12T01:51:50.239Z,1036.41
2019-02-12T01:52:50.223Z,1036.51
2019-02-12T01:53:50.211Z,1036.45
2019-02-12T01:54:50.193Z,1036.49
2019-02-12T01:55:50.181Z,1036.43
2019-02-12T01:56:50.163Z,1036.5
2019-02-12T01:57:50.149Z,1036.52
2019-02-12T01:58:50.134Z,1036.5
2019-02-12T01:59:50.119Z,1036.43
2019-02-12T02:00:50.103Z,1036.44
2019-02-12T02:01:50.090Z,1036.4
2019-02-12T02:02:50.074Z,1036.43
2019-02-12T02:03:50.058Z,1036.49
2019-02-12T02:04:50.044Z,1036.44
2019-02-12T02:05:50.030Z,1036.51
2019-02-12T02:06:50.015Z,1036.48
2019-02-12T02:07:49.999Z,1036.49
2019-02-12T02:08:49.985Z,1036.55
2019-02-12T02:09:49.971Z,1036.58
2019-02-12T02:10:49.956Z,1036.47
2019-02-12T02:11:49.940Z,1036.51
2019-02-12T02:12:49.925Z,1036.41
2019-02-12T02:13:49.911Z,1036.48
2019-02-12T02:14:49.896Z,1036.43
2019-02-12T02:15:49.880Z,1036.49
2019-02-12T02:16:49.866Z,1036.41
2019-02-12T02:17:49.852Z,1036.5
2019-02-12T02:18:49.836Z,1036.52
2019-02-12T02:19:49.827Z,1036.62
2019-02-12T02:20:49.808Z,1036.62
2019-02-12T02:21:49.793Z,1036.64
2019-02-12T02:22:49.778Z,1036.58
2019-02-12T02:23:49.763Z,1036.55
2019-02-12T02:24:49.758Z,1036.65
2019-02-12T02:25:49.733Z,1036.51
2019-02-12T02:26:49.718Z,1036.46
2019-02-12T02:27:49.704Z,1036.47
2019-02-12T02:28:49.690Z,1036.54
2019-02-12T02:29:49.674Z,1036.52
2019-02-12T02:30:49.660Z,1036.59
2019-02-12T02:31:49.648Z,1036.56
2019-02-12T02:32:49.631Z,1036.6
2019-02-12T02:33:49.615Z,1036.66
2019-02-12T02:34:49.600Z,1036.72
2019-02-12T02:35:49.591Z,1036.6
2019-02-12T02:36:49.574Z,1036.72
2019-02-12T02:37:49.557Z,1036.85
2019-02-12T02:38:49.543Z,1036.77
2019-02-12T02:39:49.530Z,1036.81
2019-02-12T02:40:49.513Z,1036.81
2019-02-12T02:41:49.498Z,1036.82
2019-02-12T02:42:49.484Z,1036.79
2019-02-12T02:43:49.470Z,1036.74
2019-02-12T02:44:49.457Z,1036.83
2019-02-12T02:45:49.440Z,1036.84
2019-02-12T02:46:49.426Z,1036.84
2019-02-12T02:47:49.411Z,1036.76
2019-02-12T02:48:49.395Z,1036.68
2019-02-12T02:49:49.381Z,1036.67
2019-02-12T02:50:49.367Z,1036.7
2019-02-12T02:51:53.856Z,1036.69
2019-02-12T02:52:49.340Z,1036.7
2019-02-12T02:53:49.322Z,1036.77
2019-02-12T02:54:49.307Z,1036.73
2019-02-12T02:55:49.292Z,1036.76
2019-02-12T02:56:49.282Z,1036.85
2019-02-12T02:57:49.263Z,1036.77
2019-02-12T02:58:49.248Z,1036.8
2019-02-12T02:59:49.237Z,1036.78
2019-02-12T03:00:49.220Z,1036.74
2019-02-12T03:01:49.209Z,1036.74
2019-02-12T03:02:49.189Z,1036.8
2019-02-12T03:03:49.174Z,1036.74
2019-02-12T03:04:49.159Z,1036.79
2019-02-12T03:05:49.147Z,1036.86
2019-02-12T03:06:49.130Z,1036.89
2019-02-12T03:07:49.117Z,1036.93
2019-02-12T03:08:49.103Z,1036.84
2019-02-12T03:09:49.087Z,1036.87
2019-02-12T03:10:49.073Z,1037
2019-02-12T03:11:49.059Z,1036.87
2019-02-12T03:12:49.043Z,1036.86
2019-02-12T03:13:49.028Z,1036.81
2019-02-12T03:14:49.016Z,1036.8
2019-02-12T03:15:49.008Z,1036.7
2019-02-12T03:16:48.985Z,1036.68
2019-02-12T03:17:48.970Z,1036.58
2019-02-12T03:18:48.955Z,1036.63
2019-02-12T03:19:48.944Z,1036.63
2019-02-12T03:20:48.926Z,1036.62
2019-02-12T03:21:48.911Z,1036.76
2019-02-12T03:22:48.897Z,1036.7
2019-02-12T03:23:48.890Z,1036.75
2019-02-12T03:24:48.867Z,1036.76
2019-02-12T03:25:48.852Z,1036.75
2019-02-12T03:26:48.838Z,1036.75
2019-02-12T03:27:48.824Z,1036.79
2019-02-12T03:28:48.809Z,1036.8
2019-02-12T03:29:48.796Z,1036.83
2019-02-12T03:30:48.874Z,1036.74
2019-02-12T03:31:48.785Z,1036.72
2019-02-12T03:32:48.751Z,1036.82
2019-02-12T03:33:48.737Z,1036.72
2019-02-12T03:34:48.722Z,1036.79
2019-02-12T03:35:48.710Z,1037
2019-02-12T03:36:48.692Z,1036.78
2019-02-12T03:37:48.677Z,1036.88
2019-02-12T03:38:48.662Z,1036.89
2019-02-12T03:39:48.648Z,1036.99
2019-02-12T03:40:48.634Z,1037.04
2019-02-12T03:41:48.619Z,1037.01
2019-02-12T03:42:48.612Z,1037.1
2019-02-12T03:43:48.589Z,1037.05
2019-02-12T03:44:48.574Z,1037.11
2019-02-12T03:45:48.560Z,1037.04
2019-02-12T03:46:48.545Z,1037.17
2019-02-12T03:47:48.536Z,1037.11
2019-02-12T03:48:48.517Z,1037.14
2019-02-12T03:49:48.501Z,1037.25
2019-02-12T03:50:48.487Z,1037.35
2019-02-12T03:51:48.472Z,1037.35
2019-02-12T03:52:48.458Z,1037.37
2019-02-12T03:53:48.443Z,1037.44
2019-02-12T03:54:48.429Z,1037.49
2019-02-12T03:55:48.413Z,1037.46
2019-02-12T03:56:48.400Z,1037.48
2019-02-12T03:57:48.387Z,1037.49
2019-02-12T03:58:48.371Z,1037.54
2019-02-12T03:59:48.369Z,1037.62
2019-02-12T04:00:48.340Z,1037.59
2019-02-12T04:01:48.325Z,1037.75
2019-02-12T04:02:48.310Z,1037.7
2019-02-12T04:03:48.296Z,1037.81
2019-02-12T04:04:48.281Z,1037.9
2019-02-12T04:05:48.266Z,1037.95
2019-02-12T04:06:48.250Z,1037.99
2019-02-12T04:07:48.236Z,1038
2019-02-12T04:08:48.222Z,1038.05
2019-02-12T04:09:48.216Z,1038.02
2019-02-12T04:10:48.190Z,1038.09
2019-02-12T04:11:48.175Z,1038.08
2019-02-12T04:12:48.162Z,1038.17
2019-02-12T04:13:48.149Z,1038.21
2019-02-12T04:14:48.130Z,1038.22
2019-02-12T04:15:48.118Z,1038.22
2019-02-12T04:16:48.100Z,1038.19
2019-02-12T04:17:48.085Z,1038.17
2019-02-12T04:18:48.069Z,1038.2
2019-02-12T04:19:48.054Z,1038.21
2019-02-12T04:20:48.039Z,1038.21
2019-02-12T04:21:48.025Z,1038.21
2019-02-12T04:22:48.007Z,1038.16
2019-02-12T04:23:47.993Z,1038.16
2019-02-12T04:24:47.978Z,1038.17
2019-02-12T04:25:47.961Z,1038.22
2019-02-12T04:26:47.946Z,1038.23
2019-02-12T04:27:47.930Z,1038.28
2019-02-12T04:28:47.914Z,1038.27
2019-02-12T04:29:47.898Z,1038.33
2019-02-12T04:30:47.883Z,1038.34
2019-02-12T04:31:47.867Z,1038.34
2019-02-12T04:32:47.852Z,1038.27
2019-02-12T04:33:47.835Z,1038.3
2019-02-12T04:34:47.821Z,1038.31
2019-02-12T04:35:47.862Z,1038.39
2019-02-12T04:36:47.791Z,1038.29
2019-02-12T04:37:47.773Z,1038.31
2019-02-12T04:38:47.757Z,1038.3
2019-02-12T04:39:47.742Z,1038.38
2019-02-12T04:40:47.727Z,1038.44
2019-02-12T04:41:47.711Z,1038.45
2019-02-12T04:42:47.696Z,1038.5
2019-02-12T04:43:47.680Z,1038.49
2019-02-12T04:44:47.664Z,1038.48
2019-02-12T04:45:47.652Z,1038.54
2019-02-12T04:46:47.636Z,1038.6
2019-02-12T04:47:47.616Z,1038.58
2019-02-12T04:48:47.601Z,1038.63
2019-02-12T04:49:47.584Z,1038.72
2019-02-12T04:50:47.569Z,1038.67
2019-02-12T04:51:47.555Z,1038.67
2019-02-12T04:52:47.536Z,1038.62
2019-02-12T04:53:47.520Z,1038.55
2019-02-12T04:54:47.505Z,1038.64
2019-02-12T04:55:47.488Z,1038.61
2019-02-12T04:56:47.472Z,1038.65
2019-02-12T04:57:47.457Z,1038.59
2019-02-12T04:58:47.444Z,1038.55
2019-02-12T04:59:47.429Z,1038.46
2019-02-12T05:00:47.423Z,1038.42
2019-02-12T05:01:47.401Z,1038.39
2019-02-12T05:02:47.377Z,1038.38
2019-02-12T05:03:47.362Z,1038.38
2019-02-12T05:04:47.347Z,1038.44
2019-02-12T05:05:47.334Z,1038.49
2019-02-12T05:06:47.314Z,1038.52
2019-02-12T05:07:47.317Z,1038.64
2019-02-12T05:08:47.282Z,1038.61
2019-02-12T05:09:47.267Z,1038.56
2019-02-12T05:10:47.251Z,1038.6
2019-02-12T05:11:47.234Z,1038.64
2019-02-12T05:12:47.229Z,1038.64
2019-02-12T05:13:47.203Z,1038.62
2019-02-12T05:14:47.187Z,1038.65
2019-02-12T05:15:47.172Z,1038.68
2019-02-12T05:16:47.154Z,1038.74
2019-02-12T05:17:47.137Z,1038.78
2019-02-12T05:18:47.124Z,1038.78
2019-02-12T05:19:47.107Z,1038.84
2019-02-12T05:20:47.092Z,1038.9
2019-02-12T05:21:47.075Z,1038.91
2019-02-12T05:22:47.060Z,1038.91
2019-02-12T05:23:47.044Z,1038.96
2019-02-12T05:24:47.028Z,1038.93
2019-02-12T05:25:47.012Z,1038.99
2019-02-12T05:26:46.995Z,1038.95
2019-02-12T05:27:46.980Z,1038.93
2019-02-12T05:28:46.963Z,1039
2019-02-12T05:29:46.948Z,1038.94
2019-02-12T05:30:46.934Z,1038.96
2019-02-12T05:31:46.916Z,1039
2019-02-12T05:32:46.900Z,1039.01
2019-02-12T05:33:46.884Z,1039.07
2019-02-12T05:34:46.874Z,1038.97
2019-02-12T05:35:46.853Z,1038.99
2019-02-12T05:36:46.836Z,1039.04
2019-02-12T05:37:46.821Z,1039.06
2019-02-12T05:38:46.805Z,1039.06
2019-02-12T05:39:46.800Z,1039.09
2019-02-12T05:40:46.773Z,1039.07
2019-02-12T05:41:46.758Z,1039.04
2019-02-12T05:42:46.742Z,1039
2019-02-12T05:43:46.725Z,1039
2019-02-12T05:44:46.709Z,1038.92
2019-02-12T05:45:46.694Z,1038.94
2019-02-12T05:46:46.682Z,1038.87
2019-02-12T05:47:46.662Z,1038.85
2019-02-12T05:48:46.646Z,1038.79
2019-02-12T05:49:46.639Z,1038.75
2019-02-12T05:50:46.614Z,1038.77
2019-02-12T05:51:46.599Z,1038.77
2019-02-12T05:52:53.543Z,1038.71
2019-02-12T05:53:46.568Z,1038.84
2019-02-12T05:54:46.552Z,1038.81
2019-02-12T05:55:46.538Z,1038.83
2019-02-12T05:56:46.522Z,1038.85
2019-02-12T05:57:46.509Z,1038.95
2019-02-12T05:58:46.489Z,1038.99
2019-02-12T05:59:47.046Z,1039
2019-02-12T06:00:46.465Z,1039.03
2019-02-12T06:01:46.441Z,1039.02
2019-02-12T06:02:46.430Z,1038.98
2019-02-12T06:03:46.413Z,1038.99
2019-02-12T06:04:46.396Z,1038.97
2019-02-12T06:05:46.380Z,1038.89
2019-02-12T06:06:46.365Z,1038.93
2019-02-12T06:07:46.350Z,1038.87
2019-02-12T06:08:46.332Z,1038.9
2019-02-12T06:09:46.320Z,1038.89
2019-02-12T06:10:46.302Z,1038.88
2019-02-12T06:11:46.296Z,1038.74
2019-02-12T06:12:46.278Z,1038.77
2019-02-12T06:13:46.275Z,1038.74
2019-02-12T06:14:46.241Z,1038.72
2019-02-12T06:15:46.226Z,1038.66
2019-02-12T06:16:46.228Z,1038.64
2019-02-12T06:17:46.198Z,1038.66
2019-02-12T06:18:46.181Z,1038.65
2019-02-12T06:19:46.166Z,1038.67
2019-02-12T06:20:46.150Z,1038.67
2019-02-12T06:21:46.138Z,1038.65
2019-02-12T06:22:46.120Z,1038.66
2019-02-12T06:23:46.106Z,1038.62
2019-02-12T06:24:46.092Z,1038.74
2019-02-12T06:25:46.075Z,1038.72
2019-02-12T06:26:46.060Z,1038.71
2019-02-12T06:27:46.045Z,1038.68
2019-02-12T06:28:46.030Z,1038.69
2019-02-12T06:29:46.017Z,1038.7
2019-02-12T06:30:46.000Z,1038.71
2019-02-12T06:31:45.987Z,1038.71
2019-02-12T06:32:45.970Z,1038.71
2019-02-12T06:33:45.956Z,1038.68
2019-02-12T06:34:45.942Z,1038.7
2019-02-12T06:35:45.926Z,1038.77
2019-02-12T06:36:45.917Z,1038.81
2019-02-12T06:37:45.896Z,1038.8
2019-02-12T06:38:45.881Z,1038.81
2019-02-12T06:39:45.867Z,1038.84
2019-02-12T06:40:45.853Z,1038.87
2019-02-12T06:41:45.841Z,1038.83
2019-02-12T06:42:45.823Z,1038.8
2019-02-12T06:43:45.816Z,1038.87
2019-02-12T06:44:45.794Z,1038.88
2019-02-12T06:45:45.778Z,1038.92
2019-02-12T06:46:45.764Z,1038.88
2019-02-12T06:47:45.751Z,1038.9
2019-02-12T06:48:45.734Z,1038.92
2019-02-12T06:49:45.720Z,1038.94
2019-02-12T06:50:45.711Z,1038.99
2019-02-12T06:51:45.690Z,1039.06
2019-02-12T06:52:45.676Z,1039.09
2019-02-12T06:53:45.661Z,1039.03
2019-02-12T06:54:45.647Z,1038.98
2019-02-12T06:55:45.633Z,1039.06
2019-02-12T06:56:45.619Z,1039.06
2019-02-12T06:57:45.602Z,1039.08
2019-02-12T06:58:45.589Z,1039.1
2019-02-12T06:59:45.574Z,1039.13
2019-02-12T07:00:45.560Z,1038.99
2019-02-12T07:01:45.545Z,1039.02
2019-02-12T07:02:45.530Z,1038.99
2019-02-12T07:03:45.515Z,1038.99
2019-02-12T07:04:45.502Z,1039.06
2019-02-12T07:05:45.487Z,1039.09
2019-02-12T07:06:45.473Z,1039.14
2019-02-12T07:07:45.461Z,1039.04
2019-02-12T07:08:45.442Z,1039.1
2019-02-12T07:09:45.434Z,1039.05
2019-02-12T07:10:45.413Z,1038.98
2019-02-12T07:11:45.399Z,1039.03
2019-02-12T07:12:45.392Z,1038.95
2019-02-12T07:13:45.371Z,1038.97
2019-02-12T07:14:45.357Z,1039
2019-02-12T07:15:45.342Z,1039.01
2019-02-12T07:16:45.327Z,1038.99
2019-02-12T07:17:45.314Z,1038.99
2019-02-12T07:18:45.299Z,1039.01
2019-02-12T07:19:45.289Z,1039.05
2019-02-12T07:20:45.270Z,1039.03
2019-02-12T07:21:45.255Z,1039
2019-02-12T07:22:45.243Z,1039
2019-02-12T07:23:45.226Z,1039.02
2019-02-12T07:24:45.213Z,1038.99
2019-02-12T07:25:45.200Z,1038.95
2019-02-12T07:26:45.184Z,1038.91
2019-02-12T07:27:45.171Z,1038.89
2019-02-12T07:28:45.156Z,1038.93
2019-02-12T07:29:45.142Z,1039
2019-02-12T07:30:45.130Z,1038.93
2019-02-12T07:31:45.114Z,1038.92
2019-02-12T07:32:45.098Z,1038.93
2019-02-12T07:33:45.087Z,1038.87
2019-02-12T07:34:45.071Z,1038.94
2019-02-12T07:35:45.056Z,1038.86
2019-02-12T07:36:45.043Z,1038.88
2019-02-12T07:37:45.030Z,1038.81
2019-02-12T07:38:45.015Z,1038.79
2019-02-12T07:39:45.001Z,1038.74
2019-02-12T07:40:44.987Z,1038.73
2019-02-12T07:41:44.973Z,1038.79
2019-02-12T07:42:44.960Z,1038.79
2019-02-12T07:43:44.944Z,1038.87
2019-02-12T07:44:44.931Z,1038.81
2019-02-12T07:45:44.917Z,1038.73
2019-02-12T07:46:44.904Z,1038.76
2019-02-12T07:47:44.895Z,1038.79
2019-02-12T07:48:45.281Z,1038.8
2019-02-12T07:49:44.861Z,1038.79
2019-02-12T07:50:44.854Z,1038.8
2019-02-12T07:51:44.834Z,1038.89
2019-02-12T07:52:44.823Z,1038.87
2019-02-12T07:53:44.808Z,1038.82
2019-02-12T07:54:44.794Z,1038.73
2019-02-12T07:55:44.781Z,1038.67
2019-02-12T07:56:44.768Z,1038.69
2019-02-12T07:57:44.755Z,1038.72
2019-02-12T07:58:44.748Z,1038.64
2019-02-12T07:59:44.728Z,1038.59
2019-02-12T08:00:44.720Z,1038.66
2019-02-12T08:01:44.705Z,1038.74
2019-02-12T08:02:44.686Z,1038.69
2019-02-12T08:03:44.674Z,1038.64
2019-02-12T08:04:44.677Z,1038.62
2019-02-12T08:05:44.647Z,1038.56
2019-02-12T08:06:44.636Z,1038.59
2019-02-12T08:07:44.622Z,1038.55
2019-02-12T08:08:44.613Z,1038.43
2019-02-12T08:09:44.597Z,1038.46
2019-02-12T08:10:44.582Z,1038.46
2019-02-12T08:11:44.570Z,1038.41
2019-02-12T08:12:44.562Z,1038.43
2019-02-12T08:13:44.546Z,1038.34
2019-02-12T08:14:44.535Z,1038.32
2019-02-12T08:15:44.517Z,1038.31
2019-02-12T08:16:44.505Z,1038.31
2019-02-12T08:17:44.493Z,1038.3
2019-02-12T08:18:44.480Z,1038.36
2019-02-12T08:19:44.475Z,1038.4
2019-02-12T08:20:44.457Z,1038.43
2019-02-12T08:21:44.442Z,1038.46
2019-02-12T08:22:44.430Z,1038.51
2019-02-12T08:23:44.417Z,1038.57
2019-02-12T08:24:44.416Z,1038.63
2019-02-12T08:25:44.392Z,1038.65
2019-02-12T08:26:44.381Z,1038.67
2019-02-12T08:27:44.369Z,1038.73
2019-02-12T08:28:44.356Z,1038.65
2019-02-12T08:29:44.342Z,1038.61
2019-02-12T08:30:44.333Z,1038.55
2019-02-12T08:31:44.323Z,1038.46
2019-02-12T08:32:44.305Z,1038.45
2019-02-12T08:33:44.377Z,1038.34
2019-02-12T08:34:45.000Z,1038.34
2019-02-12T08:35:44.267Z,1038.32
2019-02-12T08:36:44.256Z,1038.36
2019-02-12T08:37:44.244Z,1038.37
2019-02-12T08:38:44.229Z,1038.4
2019-02-12T08:39:44.219Z,1038.46
2019-02-12T08:40:44.213Z,1038.46
2019-02-12T08:41:44.195Z,1038.51
2019-02-12T08:42:44.182Z,1038.5
2019-02-12T08:43:44.170Z,1038.51
2019-02-12T08:44:44.158Z,1038.51
2019-02-12T08:45:44.148Z,1038.54
2019-02-12T08:46:44.148Z,1038.56
2019-02-12T08:47:44.125Z,1038.6
2019-02-12T08:48:44.121Z,1038.56
2019-02-12T08:49:44.097Z,1038.45
2019-02-12T08:50:44.085Z,1038.48
2019-02-12T08:51:44.073Z,1038.26
2019-02-12T08:52:44.062Z,1038.19
2019-02-12T08:53:50.211Z,1038.23
2019-02-12T08:54:44.044Z,1038.22
2019-02-12T08:55:44.025Z,1038.21
2019-02-12T08:56:44.013Z,1038.23
2019-02-12T08:57:44.000Z,1038.27
2019-02-12T08:58:43.989Z,1038.29
2019-02-12T08:59:43.978Z,1038.36
2019-02-12T09:00:43.965Z,1038.33
2019-02-12T09:01:43.964Z,1038.44
2019-02-12T09:02:43.942Z,1038.47
2019-02-12T09:03:43.931Z,1038.41
2019-02-12T09:04:43.918Z,1038.21
2019-02-12T09:05:43.907Z,1038.18
2019-02-12T09:06:43.907Z,1038.12
2019-02-12T09:07:43.883Z,1038.11
2019-02-12T09:08:43.872Z,1038.1
2019-02-12T09:09:43.877Z,1038.32
2019-02-12T09:10:43.850Z,1038.51
2019-02-12T09:11:43.838Z,1038.62
2019-02-12T09:12:43.825Z,1038.63
2019-02-12T09:13:43.814Z,1038.63
2019-02-12T09:14:43.803Z,1038.63
2019-02-12T09:15:43.804Z,1038.43
2019-02-12T09:16:43.785Z,1038.36
2019-02-12T09:17:43.773Z,1038.27
2019-02-12T09:18:43.758Z,1038.21
2019-02-12T09:19:43.747Z,1038.14
2019-02-12T09:20:43.746Z,1038.23
2019-02-12T09:21:43.725Z,1038.26
2019-02-12T09:22:43.719Z,1038.38
2019-02-12T09:23:43.701Z,1038.41
2019-02-12T09:24:43.697Z,1038.47
2019-02-12T09:25:43.681Z,1038.41
2019-02-12T09:26:43.671Z,1038.2
2019-02-12T09:27:43.659Z,1038.1
2019-02-12T09:28:43.647Z,1037.98
2019-02-12T09:29:43.636Z,1038.07
2019-02-12T09:30:43.625Z,1038.04
2019-02-12T09:31:43.614Z,1038.04
2019-02-12T09:32:43.604Z,1038.25
2019-02-12T09:33:43.592Z,1038.21
2019-02-12T09:34:43.582Z,1038.15
2019-02-12T09:35:43.571Z,1038.15
2019-02-12T09:36:43.559Z,1038.06
2019-02-12T09:37:43.556Z,1037.87
2019-02-12T09:38:43.538Z,1037.95
2019-02-12T09:39:43.527Z,1038
2019-02-12T09:40:43.517Z,1037.95
2019-02-12T09:41:43.505Z,1037.87
2019-02-12T09:42:43.496Z,1037.85
2019-02-12T09:43:43.484Z,1037.9
2019-02-12T09:44:43.473Z,1038.12
2019-02-12T09:45:43.463Z,1038.07
2019-02-12T09:46:43.452Z,1038.1
2019-02-12T09:47:43.441Z,1038.02
2019-02-12T09:48:43.431Z,1037.97
2019-02-12T09:49:43.420Z,1038.05
2019-02-12T09:50:43.412Z,1038.02
2019-02-12T09:51:43.399Z,1037.88
2019-02-12T09:52:43.388Z,1037.94
2019-02-12T09:53:43.376Z,1038.11
2019-02-12T09:54:43.367Z,1038.22
2019-02-12T09:55:43.357Z,1038.25
2019-02-12T09:56:43.350Z,1038.3
2019-02-12T09:57:43.336Z,1038.48
2019-02-12T09:58:43.325Z,1038.47
2019-02-12T09:59:43.314Z,1038.37
2019-02-12T10:00:43.303Z,1038.33
2019-02-12T10:01:43.298Z,1038.04
2019-02-12T10:02:43.283Z,1038.39
2019-02-12T10:03:43.273Z,1038.49
2019-02-12T10:04:43.262Z,1038.55
2019-02-12T10:05:43.252Z,1038.68
2019-02-12T10:06:43.243Z,1038.68
2019-02-12T10:07:43.256Z,1038.59
2019-02-12T10:08:43.220Z,1038.61
2019-02-12T10:09:43.213Z,1038.7
2019-02-12T10:10:43.204Z,1038.71
2019-02-12T10:11:43.188Z,1038.62
2019-02-12T10:12:43.177Z,1038.6
2019-02-12T10:13:43.167Z,1038.29
2019-02-12T10:14:43.158Z,1038.26
2019-02-12T10:15:43.155Z,1038.32
2019-02-12T10:16:43.136Z,1038.34
2019-02-12T10:17:43.125Z,1038.22
2019-02-12T10:18:43.124Z,1038.24
2019-02-12T10:19:43.123Z,1038.49
2019-02-12T10:20:43.094Z,1038.45
2019-02-12T10:21:43.085Z,1038.48
2019-02-12T10:22:43.075Z,1038.4
2019-02-12T10:23:43.064Z,1038.34
2019-02-12T10:24:43.052Z,1038.32
2019-02-12T10:25:43.043Z,1038.27
2019-02-12T10:26:43.033Z,1038.27
2019-02-12T10:27:43.022Z,1038.26
2019-02-12T10:28:48.739Z,1038.23
